createdAt,value
2023-05-23T00:00:33.685Z,100.00
2023-05-23T00:04:50.196Z,100.00
2023-05-23T00:08:51.910Z,100.00
2023-05-23T00:12:53.612Z,100.00
2023-05-23T00:16:55.436Z,100.00
2023-05-23T00:20:57.679Z,100.00
2023-05-23T00:25:02.376Z,100.00
2023-05-23T00:29:08.177Z,100.00
2023-05-23T00:33:10.006Z,100.00
2023-05-23T00:37:11.982Z,100.00
2023-05-23T00:41:13.901Z,100.00
2023-05-23T00:45:17.282Z,100.00
2023-05-23T00:49:21.962Z,100.00
2023-05-23T00:53:24.831Z,100.00
2023-05-23T00:57:26.584Z,100.00
2023-05-23T01:01:28.403Z,100.00
2023-05-23T01:05:30.972Z,100.00
2023-05-23T01:09:32.962Z,100.00
2023-05-23T01:13:51.940Z,100.00
2023-05-23T01:18:10.647Z,100.00
2023-05-23T01:22:22.376Z,100.00
2023-05-23T01:26:41.433Z,100.00
2023-05-23T01:30:46.012Z,100.00
2023-05-23T01:34:48.524Z,100.00
2023-05-23T01:38:50.219Z,100.00
2023-05-23T01:42:55.364Z,100.00
2023-05-23T01:46:57.922Z,100.00
2023-05-23T01:50:59.810Z,100.00
2023-05-23T01:55:03.343Z,100.00
2023-05-23T01:59:05.286Z,100.00
2023-05-23T02:03:07.333Z,100.00
2023-05-23T02:07:09.383Z,100.00
2023-05-23T02:11:11.247Z,100.00
2023-05-23T02:15:17.540Z,100.00
2023-05-23T02:19:19.353Z,100.00
2023-05-23T02:23:21.831Z,100.00
2023-05-23T02:27:23.641Z,100.00
2023-05-23T02:31:25.409Z,100.00
2023-05-23T02:35:27.192Z,100.00
2023-05-23T02:39:28.909Z,100.00
2023-05-23T02:43:31.002Z,100.00
2023-05-23T02:47:33.734Z,100.00
2023-05-23T02:51:36.299Z,100.00
2023-05-23T02:55:39.246Z,100.00
2023-05-23T02:59:41.329Z,100.00
2023-05-23T03:03:43.174Z,100.00
2023-05-23T03:07:45.166Z,100.00
2023-05-23T03:11:47.100Z,100.00
2023-05-23T03:15:48.948Z,100.00
2023-05-23T03:19:50.768Z,100.00
2023-05-23T03:23:53.810Z,100.00
2023-05-23T03:27:56.304Z,100.00
2023-05-23T03:31:58.772Z,100.00
2023-05-23T03:36:01.316Z,100.00
2023-05-23T03:40:04.047Z,100.00
2023-05-23T03:44:06.811Z,100.00
2023-05-23T03:48:09.475Z,100.00
2023-05-23T03:52:11.813Z,100.00
2023-05-23T03:56:13.786Z,100.00
2023-05-23T04:00:17.161Z,100.00
2023-05-23T04:04:21.312Z,100.00
2023-05-23T04:08:24.958Z,100.00
2023-05-23T04:12:27.118Z,100.00
2023-05-23T04:16:33.449Z,100.00
2023-05-23T04:20:35.912Z,100.00
2023-05-23T04:24:38.368Z,100.00
2023-05-23T04:28:40.292Z,100.00
2023-05-23T04:32:43.766Z,100.00
2023-05-23T04:36:46.030Z,100.00
2023-05-23T04:40:49.613Z,100.00
2023-05-23T04:45:13.680Z,100.00
2023-05-23T04:49:30.187Z,100.00
2023-05-23T04:53:33.617Z,100.00
2023-05-23T04:57:36.410Z,100.00
2023-05-23T05:01:41.272Z,100.00
2023-05-23T05:05:45.346Z,100.00
2023-05-23T05:09:48.338Z,100.00
2023-05-23T05:13:52.865Z,100.00
2023-05-23T05:17:58.290Z,100.00
2023-05-23T05:22:05.220Z,100.00
2023-05-23T05:26:09.940Z,100.00
2023-05-23T05:30:13.541Z,100.00
2023-05-23T05:34:24.687Z,100.00
2023-05-23T05:38:27.318Z,100.00
2023-05-23T05:42:29.619Z,100.00
2023-05-23T05:46:42.063Z,100.00
2023-05-23T05:50:46.862Z,100.00
2023-05-23T05:54:49.490Z,100.00
2023-05-23T05:58:53.749Z,100.00
2023-05-23T06:02:58.753Z,100.00
2023-05-23T06:07:19.612Z,100.00
2023-05-23T06:11:21.698Z,100.00
2023-05-23T06:19:43.167Z,100.00
2023-05-23T06:23:46.162Z,100.00
2023-05-23T06:27:50.175Z,100.00
2023-05-23T06:31:53.142Z,100.00
2023-05-23T06:35:56.048Z,100.00
2023-05-23T06:39:57.920Z,100.00
2023-05-23T06:44:02.058Z,100.00
2023-05-23T06:48:07.043Z,99.92
2023-05-23T06:52:11.750Z,97.56
2023-05-23T06:56:15.061Z,100.00
2023-05-23T07:00:28.265Z,99.90
2023-05-23T07:04:39.045Z,97.80
2023-05-23T07:08:48.334Z,97.13
2023-05-23T07:12:54.820Z,99.68
2023-05-23T07:17:01.129Z,99.01
2023-05-23T07:21:04.055Z,98.57
2023-05-23T07:25:06.728Z,98.75
2023-05-23T07:29:10.602Z,97.91
2023-05-23T07:33:12.562Z,95.44
2023-05-23T07:37:18.054Z,93.05
2023-05-23T07:41:20.347Z,92.39
2023-05-23T07:45:24.004Z,92.45
2023-05-23T07:49:28.064Z,91.32
2023-05-23T07:53:32.117Z,90.93
2023-05-23T07:57:33.950Z,90.68
2023-05-23T08:01:42.479Z,87.12
2023-05-23T08:05:48.846Z,78.72
2023-05-23T08:09:52.046Z,82.00
2023-05-23T08:13:55.737Z,82.58
2023-05-23T08:18:20.402Z,82.18
2023-05-23T08:22:24.052Z,81.43
2023-05-23T08:26:34.966Z,79.03
2023-05-23T08:30:39.124Z,81.44
2023-05-23T08:34:43.064Z,80.27
2023-05-23T08:38:45.482Z,81.12
2023-05-23T08:42:57.171Z,81.56
2023-05-23T08:47:06.045Z,75.90
2023-05-23T08:51:28.075Z,75.59
2023-05-23T08:55:35.049Z,76.82
2023-05-23T08:59:39.184Z,75.51
2023-05-23T09:03:47.825Z,75.48
2023-05-23T09:07:56.995Z,74.84
2023-05-23T09:12:02.830Z,74.16
2023-05-23T09:16:11.104Z,73.75
2023-05-23T09:20:20.051Z,69.96
2023-05-23T09:24:38.069Z,70.27
2023-05-23T09:28:44.956Z,71.50
2023-05-23T09:33:05.427Z,69.18
2023-05-23T09:37:09.845Z,71.23
2023-05-23T09:41:13.481Z,70.25
2023-05-23T09:45:17.303Z,69.15
2023-05-23T09:49:23.048Z,66.48
2023-05-23T09:53:25.731Z,69.34
2023-05-23T09:57:28.784Z,72.61
2023-05-23T10:01:34.983Z,72.68
2023-05-23T10:05:47.957Z,75.75
2023-05-23T10:10:05.321Z,74.66
2023-05-23T10:14:10.047Z,76.88
2023-05-23T10:18:24.133Z,77.28
2023-05-23T10:22:28.072Z,76.54
2023-05-23T10:26:31.962Z,75.83
2023-05-23T10:30:38.604Z,75.00
2023-05-23T10:34:58.086Z,72.61
2023-05-23T10:39:09.953Z,72.80
2023-05-23T10:43:28.924Z,71.46
2023-05-23T10:47:30.818Z,68.69
2023-05-23T10:51:39.200Z,68.89
2023-05-23T10:55:42.073Z,67.91
2023-05-23T10:59:45.773Z,68.57
2023-05-23T11:03:48.637Z,70.45
2023-05-23T11:08:16.084Z,71.81
2023-05-23T11:12:38.349Z,72.21
2023-05-23T11:16:43.911Z,71.13
2023-05-23T11:20:48.132Z,69.70
2023-05-23T11:24:55.071Z,65.87
2023-05-23T11:28:59.082Z,67.28
2023-05-23T11:33:07.645Z,65.06
2023-05-23T11:37:11.124Z,63.01
2023-05-23T11:41:13.009Z,58.29
2023-05-23T11:45:14.870Z,57.24
2023-05-23T11:49:16.966Z,55.74
2023-05-23T11:53:22.020Z,59.18
2023-05-23T11:57:26.065Z,58.57
2023-05-23T12:01:31.936Z,58.60
2023-05-23T12:05:34.745Z,58.82
2023-05-23T12:09:45.948Z,59.19
2023-05-23T12:13:47.688Z,56.95
2023-05-23T12:17:51.062Z,53.86
2023-05-23T12:21:55.042Z,48.51
2023-05-23T12:25:57.436Z,45.40
2023-05-23T12:30:07.082Z,45.56
2023-05-23T12:34:11.237Z,45.97
2023-05-23T12:38:20.023Z,48.08
2023-05-23T12:42:21.786Z,49.04
2023-05-23T12:46:30.411Z,53.09
2023-05-23T12:50:32.228Z,55.52
2023-05-23T12:54:36.334Z,56.79
2023-05-23T12:58:39.076Z,57.63
2023-05-23T13:02:41.112Z,57.07
2023-05-23T13:06:42.867Z,55.46
2023-05-23T13:10:46.949Z,56.42
2023-05-23T13:14:49.404Z,56.99
2023-05-23T13:18:51.407Z,60.61
2023-05-23T13:22:54.084Z,62.04
2023-05-23T13:26:55.893Z,63.08
2023-05-23T13:31:00.161Z,63.42
2023-05-23T13:35:02.459Z,64.84
2023-05-23T13:39:07.478Z,64.53
2023-05-23T13:43:09.313Z,63.48
2023-05-23T13:47:13.479Z,60.25
2023-05-23T13:51:15.726Z,62.09
2023-05-23T13:55:18.964Z,59.02
2023-05-23T13:59:21.602Z,56.53
2023-05-23T14:03:24.751Z,55.03
2023-05-23T14:07:26.695Z,57.75
2023-05-23T14:11:28.734Z,53.67
2023-05-23T14:15:33.023Z,51.26
2023-05-23T14:19:36.736Z,49.98
2023-05-23T14:23:39.542Z,50.95
2023-05-23T14:27:44.117Z,47.05
2023-05-23T14:31:45.969Z,46.59
2023-05-23T14:35:49.084Z,42.88
2023-05-23T14:39:52.102Z,43.11
2023-05-23T14:43:53.961Z,46.15
2023-05-23T14:47:57.620Z,50.82
2023-05-23T14:51:59.693Z,52.64
2023-05-23T14:56:01.630Z,53.64
2023-05-23T15:00:05.884Z,56.01
2023-05-23T15:04:10.148Z,58.61
2023-05-23T15:08:12.567Z,60.93
2023-05-23T15:12:15.521Z,63.94
2023-05-23T15:16:19.943Z,63.39
2023-05-23T15:20:23.444Z,66.75
2023-05-23T15:24:26.507Z,67.91
2023-05-23T15:28:29.990Z,70.58
2023-05-23T15:32:32.824Z,70.83
2023-05-23T15:36:34.963Z,72.87
2023-05-23T15:40:38.086Z,74.38
2023-05-23T15:44:41.129Z,73.41
2023-05-23T15:48:42.824Z,72.42
2023-05-23T15:52:44.638Z,71.62
2023-05-23T15:56:51.113Z,71.22
2023-05-23T16:00:53.519Z,69.01
2023-05-23T16:04:55.522Z,68.06
2023-05-23T16:08:57.445Z,68.68
2023-05-23T16:12:59.212Z,69.15
2023-05-23T16:17:03.356Z,68.62
2023-05-23T16:21:05.977Z,69.23
2023-05-23T16:25:11.377Z,70.54
2023-05-23T16:29:15.196Z,70.21
2023-05-23T16:33:17.408Z,69.03
2023-05-23T16:37:21.114Z,69.68
2023-05-23T16:41:25.239Z,69.27
2023-05-23T16:45:31.156Z,67.21
2023-05-23T16:49:34.362Z,67.42
2023-05-23T16:53:36.053Z,67.31
2023-05-23T16:57:37.794Z,68.94
2023-05-23T17:01:40.174Z,68.84
2023-05-23T17:05:43.756Z,69.65
2023-05-23T17:09:46.250Z,70.72
2023-05-23T17:13:47.950Z,71.25
2023-05-23T17:17:51.174Z,71.99
2023-05-23T17:21:54.475Z,71.09
2023-05-23T17:25:56.581Z,69.61
2023-05-23T17:30:00.210Z,70.54
2023-05-23T17:34:04.499Z,66.81
2023-05-23T17:38:07.657Z,68.75
2023-05-23T17:42:09.604Z,67.14
2023-05-23T17:46:11.509Z,66.32
2023-05-23T17:50:13.492Z,63.95
2023-05-23T17:54:15.808Z,64.37
2023-05-23T17:58:19.112Z,63.55
2023-05-23T18:02:21.114Z,63.75
2023-05-23T18:06:23.452Z,64.18
2023-05-23T18:10:25.454Z,63.28
2023-05-23T18:14:28.116Z,64.33
2023-05-23T18:18:30.504Z,62.17
2023-05-23T18:22:33.772Z,63.26
2023-05-23T18:26:40.324Z,62.14
2023-05-23T18:30:42.378Z,63.65
2023-05-23T18:34:45.092Z,63.64
2023-05-23T18:38:46.821Z,61.71
2023-05-23T18:42:50.487Z,59.51
2023-05-23T18:46:52.256Z,59.16
2023-05-23T18:50:54.066Z,59.60
2023-05-23T18:54:59.164Z,59.49
2023-05-23T18:59:00.898Z,59.46
2023-05-23T19:03:03.016Z,61.30
2023-05-23T19:07:05.318Z,62.95
2023-05-23T19:11:07.653Z,65.17
2023-05-23T19:15:10.833Z,67.47
2023-05-23T19:19:13.165Z,69.16
2023-05-23T19:23:15.342Z,70.18
2023-05-23T19:27:18.476Z,71.43
2023-05-23T19:31:20.619Z,72.66
2023-05-23T19:35:23.206Z,74.00
2023-05-23T19:39:27.527Z,75.24
2023-05-23T19:43:29.117Z,76.44
2023-05-23T19:47:32.497Z,75.95
2023-05-23T19:51:34.697Z,77.35
2023-05-23T19:55:36.722Z,79.12
2023-05-23T19:59:38.456Z,79.66
2023-05-23T20:03:40.171Z,81.73
2023-05-23T20:07:43.068Z,82.59
2023-05-23T20:11:44.963Z,82.95
2023-05-23T20:15:46.749Z,84.21
2023-05-23T20:19:49.239Z,84.41
2023-05-23T20:23:51.079Z,85.80
2023-05-23T20:27:52.873Z,87.03
2023-05-23T20:31:57.112Z,87.90
2023-05-23T20:36:00.116Z,88.74
2023-05-23T20:40:02.143Z,89.77
2023-05-23T20:44:04.039Z,89.57
2023-05-23T20:48:07.446Z,90.49
2023-05-23T20:52:09.208Z,91.36
2023-05-23T20:56:12.109Z,91.85
2023-05-23T21:00:14.433Z,91.38
2023-05-23T21:04:18.124Z,91.69
2023-05-23T21:08:22.021Z,92.14
2023-05-23T21:12:24.098Z,94.23
2023-05-23T21:16:27.140Z,94.59
2023-05-23T21:20:29.333Z,93.31
2023-05-23T21:24:31.431Z,93.10
2023-05-23T21:28:33.310Z,93.79
2023-05-23T21:32:35.943Z,93.87
2023-05-23T21:36:37.774Z,93.36
2023-05-23T21:40:39.742Z,93.91
2023-05-23T21:44:41.660Z,92.46
2023-05-23T21:48:43.586Z,92.06
2023-05-23T21:52:45.317Z,92.24
2023-05-23T21:56:47.082Z,92.35
2023-05-23T22:00:49.399Z,92.29
2023-05-23T22:04:51.170Z,92.50
2023-05-23T22:08:54.101Z,92.48
2023-05-23T22:12:56.096Z,92.59
2023-05-23T22:16:59.760Z,92.44
2023-05-23T22:21:02.865Z,92.38
2023-05-23T22:25:05.329Z,91.60
2023-05-23T22:29:08.184Z,91.03
2023-05-23T22:33:13.294Z,91.57
2023-05-23T22:37:16.223Z,91.17
2023-05-23T22:41:18.554Z,91.95
2023-05-23T22:45:20.484Z,92.00
2023-05-23T22:49:22.479Z,93.07
2023-05-23T22:53:24.348Z,93.86
2023-05-23T22:57:26.208Z,96.12
2023-05-23T23:01:27.947Z,96.76
2023-05-23T23:05:29.686Z,97.12
2023-05-23T23:09:31.481Z,97.27
2023-05-23T23:13:33.195Z,98.20
2023-05-23T23:17:35.467Z,98.32
2023-05-23T23:21:37.799Z,99.74
2023-05-23T23:25:40.455Z,99.88
2023-05-23T23:29:42.314Z,100.00
2023-05-23T23:33:44.067Z,100.00
2023-05-23T23:37:45.837Z,100.00
2023-05-23T23:41:48.443Z,100.00
2023-05-23T23:45:50.120Z,100.00
2023-05-23T23:49:52.048Z,100.00
2023-05-23T23:53:53.724Z,100.00
2023-05-23T23:57:55.429Z,100.00
